الصفحة الرئيسية
METAR-TAF:

METAR-TAF

مطار :

مطار ليبرفيل الدولي

ليبرفيل, الغابون

دائرة عرض: 00-27N, خط طول: 009-25E, ارتفاع: 12 متر

مراقبة الطقس الحالي

تاريخ ووقت الإصدار 28 دقيقة قبل الساعة 07:00UTC
ريح 6 عقدة من الجنوب الشرقي
درجة الحرارة 25°درجة مئوية
الرطوبة 83%
ضغط 1014 hPa
الرؤية 10 كم أو أكثر
غيوم متفرقة على ارتفاع 1700 قدم

METAR: FOOL 240700Z 13006KT 9999 SCT017 25/22 Q1014 NOSIG

زمن: 08:28 (07:28 UTC)

توقعات

تاريخ ووقت الإصدار 2ساعات و 28 دقيقة قبل الساعة 05:00UTC
التوقعات صالحة من24 الساعة 06 UTC إلى 25 الساعة 12 UTC
ريح 8 عقدة من الجنوب/الجنوب الشرقي
الرؤية 10 كم أو أكثر
غيوم متفرقة على ارتفاع 1000 قدم
غيوم مفككة على ارتفاع 3000 قدم
مؤقت
من 25 الساعة 04 UTC إلى 25 الساعة 08 UTC
غيوم مفككة على ارتفاع 800 قدم
ملبد بالغيوم على ارتفاع 2600 قدم

TAF: FOOL 240500Z 2406/2512 16008KT 9999 SCT010 BKN030 TEMPO 2504/2508 BKN008 OVC026

أرصاد الطقس والتوقعات من أكثر من 4000 مطار (تقارير الطقس للمطار METAR والتنبؤ بالطقس بالمطارTAF).

المحطات المتاحة هي النقط الصفراء والحمراء على الخريطة.

حرك المؤشر فوق النقطة لمعرفة اسم المحطة.

ثم انقر لمعرفة أرصاد وتوقعات الطقس.

لتغيير الخارطة: اضغط على الأزرار الخضراء مع رمز الصليب الأسود للتكبير. على الزر الأخضر مع شرطة للتصغير، أو على الأسهم الخضراء للخرائط المجاورة.


METAR-TAF: